sensor_id;sensor_type;location;lat;lon;timestamp;P1;durP1;ratioP1;P2;durP2;ratioP2
75216;SDS011;63800;51.972;5.682;2023-04-03T00:01:54;2.95;;;1.88;;
75216;SDS011;63800;51.972;5.682;2023-04-03T00:04:19;4.18;;;2.00;;
75216;SDS011;63800;51.972;5.682;2023-04-03T00:06:45;3.40;;;1.60;;
75216;SDS011;63800;51.972;5.682;2023-04-03T00:09:10;2.90;;;2.17;;
75216;SDS011;63800;51.972;5.682;2023-04-03T00:11:36;3.40;;;1.75;;
75216;SDS011;63800;51.972;5.682;2023-04-03T00:14:01;2.08;;;1.90;;
75216;SDS011;63800;51.972;5.682;2023-04-03T00:16:27;4.13;;;1.73;;
75216;SDS011;63800;51.972;5.682;2023-04-03T00:18:52;2.75;;;1.77;;
75216;SDS011;63800;51.972;5.682;2023-04-03T00:21:17;3.20;;;2.47;;
75216;SDS011;63800;51.972;5.682;2023-04-03T00:23:43;3.03;;;1.73;;
75216;SDS011;63800;51.972;5.682;2023-04-03T00:26:08;3.55;;;1.80;;
75216;SDS011;63800;51.972;5.682;2023-04-03T00:28:34;3.55;;;1.80;;
75216;SDS011;63800;51.972;5.682;2023-04-03T00:31:00;1.92;;;1.70;;
75216;SDS011;63800;51.972;5.682;2023-04-03T00:33:25;2.85;;;1.83;;
75216;SDS011;63800;51.972;5.682;2023-04-03T00:35:50;2.47;;;1.55;;
75216;SDS011;63800;51.972;5.682;2023-04-03T00:38:16;2.55;;;1.70;;
75216;SDS011;63800;51.972;5.682;2023-04-03T00:40:42;3.08;;;2.05;;
75216;SDS011;63800;51.972;5.682;2023-04-03T00:43:17;3.05;;;1.70;;
75216;SDS011;63800;51.972;5.682;2023-04-03T00:45:46;2.75;;;1.67;;
75216;SDS011;63800;51.972;5.682;2023-04-03T00:48:18;1.90;;;1.70;;
75216;SDS011;63800;51.972;5.682;2023-04-03T00:50:46;2.50;;;1.92;;
75216;SDS011;63800;51.972;5.682;2023-04-03T00:53:17;2.08;;;1.60;;
75216;SDS011;63800;51.972;5.682;2023-04-03T00:55:45;2.95;;;1.80;;
75216;SDS011;63800;51.972;5.682;2023-04-03T00:58:12;2.33;;;1.60;;
75216;SDS011;63800;51.972;5.682;2023-04-03T01:00:42;3.35;;;2.38;;
75216;SDS011;63800;51.972;5.682;2023-04-03T01:03:11;3.17;;;1.83;;
75216;SDS011;63800;51.972;5.682;2023-04-03T01:05:36;4.47;;;1.90;;
75216;SDS011;63800;51.972;5.682;2023-04-03T01:08:02;2.42;;;2.03;;
75216;SDS011;63800;51.972;5.682;2023-04-03T01:10:28;2.95;;;1.88;;
75216;SDS011;63800;51.972;5.682;2023-04-03T01:12:53;4.00;;;1.98;;
75216;SDS011;63800;51.972;5.682;2023-04-03T01:15:23;1.95;;;1.80;;
75216;SDS011;63800;51.972;5.682;2023-04-03T01:17:54;2.78;;;2.30;;
75216;SDS011;63800;51.972;5.682;2023-04-03T01:25:33;3.70;;;1.92;;
75216;SDS011;63800;51.972;5.682;2023-04-03T01:28:09;4.65;;;1.65;;
75216;SDS011;63800;51.972;5.682;2023-04-03T01:30:39;2.15;;;1.77;;
75216;SDS011;63800;51.972;5.682;2023-04-03T01:33:10;2.65;;;2.00;;
75216;SDS011;63800;51.972;5.682;2023-04-03T01:35:35;2.25;;;1.45;;
75216;SDS011;63800;51.972;5.682;2023-04-03T01:38:02;3.78;;;1.70;;
75216;SDS011;63800;51.972;5.682;2023-04-03T01:40:28;3.20;;;1.65;;
75216;SDS011;63800;51.972;5.682;2023-04-03T01:42:54;4.45;;;2.15;;
75216;SDS011;63800;51.972;5.682;2023-04-03T01:45:20;2.97;;;2.00;;
75216;SDS011;63800;51.972;5.682;2023-04-03T01:47:45;2.65;;;1.98;;
75216;SDS011;63800;51.972;5.682;2023-04-03T01:50:11;3.30;;;1.73;;
75216;SDS011;63800;51.972;5.682;2023-04-03T01:52:36;4.15;;;1.98;;
75216;SDS011;63800;51.972;5.682;2023-04-03T01:55:02;1.98;;;1.77;;
75216;SDS011;63800;51.972;5.682;2023-04-03T01:57:27;2.10;;;1.88;;
75216;SDS011;63800;51.972;5.682;2023-04-03T01:59:53;4.28;;;1.90;;
75216;SDS011;63800;51.972;5.682;2023-04-03T02:02:18;3.10;;;1.95;;
75216;SDS011;63800;51.972;5.682;2023-04-03T02:04:48;3.22;;;1.70;;
75216;SDS011;63800;51.972;5.682;2023-04-03T02:07:13;3.67;;;1.85;;
75216;SDS011;63800;51.972;5.682;2023-04-03T02:09:39;3.70;;;1.65;;
75216;SDS011;63800;51.972;5.682;2023-04-03T02:12:04;2.65;;;1.75;;
75216;SDS011;63800;51.972;5.682;2023-04-03T02:14:30;2.42;;;1.70;;
75216;SDS011;63800;51.972;5.682;2023-04-03T02:16:56;2.75;;;1.90;;
75216;SDS011;63800;51.972;5.682;2023-04-03T02:19:21;3.55;;;2.40;;
75216;SDS011;63800;51.972;5.682;2023-04-03T02:21:47;3.97;;;1.80;;
75216;SDS011;63800;51.972;5.682;2023-04-03T02:24:12;2.85;;;1.73;;
75216;SDS011;63800;51.972;5.682;2023-04-03T02:26:38;2.45;;;1.73;;
75216;SDS011;63800;51.972;5.682;2023-04-03T02:29:03;4.88;;;1.88;;
75216;SDS011;63800;51.972;5.682;2023-04-03T02:31:29;3.95;;;1.85;;
75216;SDS011;63800;51.972;5.682;2023-04-03T02:33:54;3.95;;;1.90;;
75216;SDS011;63800;51.972;5.682;2023-04-03T02:36:20;2.85;;;1.90;;
75216;SDS011;63800;51.972;5.682;2023-04-03T02:38:45;2.25;;;1.60;;
75216;SDS011;63800;51.972;5.682;2023-04-03T02:41:11;2.78;;;2.40;;
75216;SDS011;63800;51.972;5.682;2023-04-03T02:43:37;4.80;;;1.90;;
75216;SDS011;63800;51.972;5.682;2023-04-03T02:46:03;4.22;;;1.73;;
75216;SDS011;63800;51.972;5.682;2023-04-03T02:48:29;3.50;;;1.90;;
75216;SDS011;63800;51.972;5.682;2023-04-03T02:50:55;3.13;;;1.60;;
75216;SDS011;63800;51.972;5.682;2023-04-03T02:53:20;2.92;;;2.13;;
75216;SDS011;63800;51.972;5.682;2023-04-03T02:55:46;2.90;;;1.70;;
75216;SDS011;63800;51.972;5.682;2023-04-03T02:58:11;3.33;;;1.83;;
75216;SDS011;63800;51.972;5.682;2023-04-03T03:00:37;4.80;;;2.10;;
75216;SDS011;63800;51.972;5.682;2023-04-03T03:03:02;2.85;;;1.90;;
75216;SDS011;63800;51.972;5.682;2023-04-03T03:05:28;3.97;;;1.85;;
75216;SDS011;63800;51.972;5.682;2023-04-03T03:07:53;4.38;;;2.22;;
75216;SDS011;63800;51.972;5.682;2023-04-03T03:10:19;3.45;;;1.85;;
75216;SDS011;63800;51.972;5.682;2023-04-03T03:12:45;2.90;;;1.77;;
75216;SDS011;63800;51.972;5.682;2023-04-03T03:15:10;5.05;;;1.83;;
75216;SDS011;63800;51.972;5.682;2023-04-03T03:17:36;3.92;;;1.92;;
75216;SDS011;63800;51.972;5.682;2023-04-03T03:20:02;2.05;;;1.65;;
75216;SDS011;63800;51.972;5.682;2023-04-03T03:22:29;4.35;;;2.13;;
75216;SDS011;63800;51.972;5.682;2023-04-03T03:24:55;4.97;;;1.70;;
75216;SDS011;63800;51.972;5.682;2023-04-03T03:27:21;3.45;;;2.20;;
75216;SDS011;63800;51.972;5.682;2023-04-03T03:29:46;4.63;;;2.15;;
75216;SDS011;63800;51.972;5.682;2023-04-03T03:32:12;3.35;;;1.90;;
75216;SDS011;63800;51.972;5.682;2023-04-03T03:34:37;5.82;;;1.80;;
75216;SDS011;63800;51.972;5.682;2023-04-03T03:37:03;2.85;;;1.90;;
75216;SDS011;63800;51.972;5.682;2023-04-03T03:39:29;2.20;;;1.63;;
75216;SDS011;63800;51.972;5.682;2023-04-03T03:41:54;5.68;;;1.67;;
75216;SDS011;63800;51.972;5.682;2023-04-03T03:44:20;4.60;;;1.85;;
75216;SDS011;63800;51.972;5.682;2023-04-03T03:46:45;3.88;;;1.90;;
75216;SDS011;63800;51.972;5.682;2023-04-03T03:49:11;4.93;;;2.58;;
75216;SDS011;63800;51.972;5.682;2023-04-03T03:51:37;2.53;;;1.88;;
75216;SDS011;63800;51.972;5.682;2023-04-03T03:54:04;3.63;;;2.08;;
75216;SDS011;63800;51.972;5.682;2023-04-03T03:56:30;3.75;;;2.13;;
75216;SDS011;63800;51.972;5.682;2023-04-03T03:58:55;2.92;;;2.10;;
75216;SDS011;63800;51.972;5.682;2023-04-03T04:01:21;3.08;;;1.90;;
75216;SDS011;63800;51.972;5.682;2023-04-03T04:03:47;4.22;;;2.05;;
75216;SDS011;63800;51.972;5.682;2023-04-03T04:06:13;3.08;;;2.00;;
75216;SDS011;63800;51.972;5.682;2023-04-03T04:08:38;2.65;;;2.30;;
75216;SDS011;63800;51.972;5.682;2023-04-03T04:11:04;4.30;;;2.38;;
75216;SDS011;63800;51.972;5.682;2023-04-03T04:13:30;3.38;;;2.05;;
75216;SDS011;63800;51.972;5.682;2023-04-03T04:15:55;5.75;;;2.45;;
75216;SDS011;63800;51.972;5.682;2023-04-03T04:18:21;4.65;;;2.17;;
75216;SDS011;63800;51.972;5.682;2023-04-03T04:20:47;3.28;;;2.15;;
75216;SDS011;63800;51.972;5.682;2023-04-03T04:23:13;2.28;;;1.98;;
75216;SDS011;63800;51.972;5.682;2023-04-03T04:25:39;5.85;;;2.50;;
75216;SDS011;63800;51.972;5.682;2023-04-03T04:28:04;4.22;;;2.13;;
75216;SDS011;63800;51.972;5.682;2023-04-03T04:30:30;5.88;;;2.55;;
75216;SDS011;63800;51.972;5.682;2023-04-03T04:32:55;4.25;;;2.38;;
75216;SDS011;63800;51.972;5.682;2023-04-03T04:35:21;4.85;;;2.38;;
75216;SDS011;63800;51.972;5.682;2023-04-03T04:37:46;4.85;;;2.30;;
75216;SDS011;63800;51.972;5.682;2023-04-03T04:40:12;4.32;;;2.20;;
75216;SDS011;63800;51.972;5.682;2023-04-03T04:42:37;5.63;;;2.55;;
75216;SDS011;63800;51.972;5.682;2023-04-03T04:45:03;3.88;;;2.35;;
75216;SDS011;63800;51.972;5.682;2023-04-03T04:47:29;5.90;;;2.22;;
75216;SDS011;63800;51.972;5.682;2023-04-03T04:49:54;4.55;;;2.45;;
75216;SDS011;63800;51.972;5.682;2023-04-03T04:52:20;3.38;;;2.20;;
75216;SDS011;63800;51.972;5.682;2023-04-03T04:54:46;6.88;;;2.40;;
75216;SDS011;63800;51.972;5.682;2023-04-03T04:57:11;4.80;;;2.53;;
75216;SDS011;63800;51.972;5.682;2023-04-03T04:59:37;5.63;;;2.80;;
75216;SDS011;63800;51.972;5.682;2023-04-03T05:02:02;6.50;;;2.85;;
75216;SDS011;63800;51.972;5.682;2023-04-03T05:04:28;3.90;;;2.30;;
75216;SDS011;63800;51.972;5.682;2023-04-03T05:06:53;5.28;;;2.30;;
75216;SDS011;63800;51.972;5.682;2023-04-03T05:09:19;4.65;;;2.33;;
75216;SDS011;63800;51.972;5.682;2023-04-03T05:11:45;5.22;;;2.60;;
75216;SDS011;63800;51.972;5.682;2023-04-03T05:14:11;4.40;;;2.25;;
75216;SDS011;63800;51.972;5.682;2023-04-03T05:16:36;4.05;;;2.30;;
75216;SDS011;63800;51.972;5.682;2023-04-03T05:19:02;3.78;;;2.28;;
75216;SDS011;63800;51.972;5.682;2023-04-03T05:21:28;6.18;;;2.40;;
75216;SDS011;63800;51.972;5.682;2023-04-03T05:23:57;4.90;;;2.42;;
75216;SDS011;63800;51.972;5.682;2023-04-03T05:26:23;6.43;;;2.45;;
75216;SDS011;63800;51.972;5.682;2023-04-03T05:28:48;4.82;;;2.70;;
75216;SDS011;63800;51.972;5.682;2023-04-03T05:31:14;4.07;;;2.58;;
75216;SDS011;63800;51.972;5.682;2023-04-03T05:33:40;6.55;;;2.50;;
75216;SDS011;63800;51.972;5.682;2023-04-03T05:36:05;3.40;;;2.65;;
75216;SDS011;63800;51.972;5.682;2023-04-03T05:38:31;4.65;;;2.40;;
75216;SDS011;63800;51.972;5.682;2023-04-03T05:40:57;5.15;;;2.25;;
75216;SDS011;63800;51.972;5.682;2023-04-03T05:43:23;3.97;;;2.53;;
75216;SDS011;63800;51.972;5.682;2023-04-03T05:45:48;3.60;;;2.65;;
75216;SDS011;63800;51.972;5.682;2023-04-03T05:48:14;5.65;;;2.40;;
75216;SDS011;63800;51.972;5.682;2023-04-03T05:50:39;5.07;;;2.53;;
75216;SDS011;63800;51.972;5.682;2023-04-03T05:53:07;2.40;;;2.10;;
75216;SDS011;63800;51.972;5.682;2023-04-03T05:55:40;5.68;;;2.60;;
75216;SDS011;63800;51.972;5.682;2023-04-03T05:58:06;5.25;;;2.53;;
75216;SDS011;63800;51.972;5.682;2023-04-03T06:00:31;4.60;;;2.60;;
75216;SDS011;63800;51.972;5.682;2023-04-03T06:02:57;6.03;;;2.55;;
75216;SDS011;63800;51.972;5.682;2023-04-03T06:05:22;5.20;;;2.08;;
75216;SDS011;63800;51.972;5.682;2023-04-03T06:07:48;7.60;;;2.20;;
75216;SDS011;63800;51.972;5.682;2023-04-03T06:10:14;4.53;;;2.40;;
75216;SDS011;63800;51.972;5.682;2023-04-03T06:12:40;5.00;;;2.40;;
75216;SDS011;63800;51.972;5.682;2023-04-03T06:15:06;2.97;;;1.80;;
75216;SDS011;63800;51.972;5.682;2023-04-03T06:17:33;5.82;;;2.40;;
75216;SDS011;63800;51.972;5.682;2023-04-03T06:19:58;4.60;;;2.42;;
75216;SDS011;63800;51.972;5.682;2023-04-03T06:22:24;3.92;;;2.45;;
75216;SDS011;63800;51.972;5.682;2023-04-03T06:24:50;4.13;;;2.50;;
75216;SDS011;63800;51.972;5.682;2023-04-03T06:27:16;5.00;;;2.30;;
75216;SDS011;63800;51.972;5.682;2023-04-03T06:29:42;4.60;;;2.42;;
75216;SDS011;63800;51.972;5.682;2023-04-03T06:32:09;5.63;;;2.30;;
75216;SDS011;63800;51.972;5.682;2023-04-03T06:34:35;4.22;;;2.13;;
75216;SDS011;63800;51.972;5.682;2023-04-03T06:37:00;7.22;;;2.00;;
75216;SDS011;63800;51.972;5.682;2023-04-03T06:39:26;4.60;;;2.28;;
75216;SDS011;63800;51.972;5.682;2023-04-03T06:41:52;6.35;;;2.10;;
75216;SDS011;63800;51.972;5.682;2023-04-03T06:44:17;2.70;;;2.08;;
75216;SDS011;63800;51.972;5.682;2023-04-03T06:46:43;2.65;;;1.77;;
75216;SDS011;63800;51.972;5.682;2023-04-03T06:49:10;4.13;;;2.33;;
75216;SDS011;63800;51.972;5.682;2023-04-03T06:51:35;3.85;;;2.20;;
75216;SDS011;63800;51.972;5.682;2023-04-03T06:54:02;4.80;;;2.35;;
75216;SDS011;63800;51.972;5.682;2023-04-03T06:56:28;6.50;;;2.53;;
75216;SDS011;63800;51.972;5.682;2023-04-03T06:58:54;6.63;;;2.60;;
75216;SDS011;63800;51.972;5.682;2023-04-03T07:01:22;2.53;;;2.03;;
75216;SDS011;63800;51.972;5.682;2023-04-03T07:03:49;6.05;;;2.20;;
75216;SDS011;63800;51.972;5.682;2023-04-03T07:06:16;4.93;;;2.00;;
75216;SDS011;63800;51.972;5.682;2023-04-03T07:08:42;7.13;;;2.45;;
75216;SDS011;63800;51.972;5.682;2023-04-03T07:11:09;3.75;;;2.55;;
75216;SDS011;63800;51.972;5.682;2023-04-03T07:13:36;3.50;;;2.20;;
75216;SDS011;63800;51.972;5.682;2023-04-03T07:16:02;5.00;;;2.28;;
75216;SDS011;63800;51.972;5.682;2023-04-03T07:18:29;2.95;;;1.95;;
75216;SDS011;63800;51.972;5.682;2023-04-03T07:20:55;4.82;;;2.10;;
75216;SDS011;63800;51.972;5.682;2023-04-03T07:23:21;4.75;;;2.63;;
75216;SDS011;63800;51.972;5.682;2023-04-03T07:25:47;5.00;;;1.80;;
75216;SDS011;63800;51.972;5.682;2023-04-03T07:28:14;3.80;;;1.95;;
75216;SDS011;63800;51.972;5.682;2023-04-03T07:30:51;3.33;;;2.10;;
75216;SDS011;63800;51.972;5.682;2023-04-03T07:33:19;4.75;;;2.05;;
75216;SDS011;63800;51.972;5.682;2023-04-03T07:35:46;3.58;;;1.63;;
75216;SDS011;63800;51.972;5.682;2023-04-03T07:38:12;6.60;;;1.98;;
75216;SDS011;63800;51.972;5.682;2023-04-03T07:40:38;4.30;;;1.67;;
75216;SDS011;63800;51.972;5.682;2023-04-03T07:43:05;5.50;;;2.13;;
75216;SDS011;63800;51.972;5.682;2023-04-03T07:45:31;3.67;;;1.63;;
75216;SDS011;63800;51.972;5.682;2023-04-03T07:47:57;3.45;;;1.58;;
75216;SDS011;63800;51.972;5.682;2023-04-03T07:50:22;4.15;;;2.08;;
75216;SDS011;63800;51.972;5.682;2023-04-03T07:52:48;5.32;;;1.73;;
75216;SDS011;63800;51.972;5.682;2023-04-03T07:55:15;3.63;;;1.70;;
75216;SDS011;63800;51.972;5.682;2023-04-03T07:57:41;4.93;;;2.15;;
75216;SDS011;63800;51.972;5.682;2023-04-03T08:00:07;3.30;;;1.67;;
75216;SDS011;63800;51.972;5.682;2023-04-03T08:02:33;2.08;;;1.70;;
75216;SDS011;63800;51.972;5.682;2023-04-03T08:04:59;2.53;;;1.73;;
75216;SDS011;63800;51.972;5.682;2023-04-03T08:07:24;4.10;;;1.70;;
75216;SDS011;63800;51.972;5.682;2023-04-03T08:09:50;2.53;;;1.52;;
75216;SDS011;63800;51.972;5.682;2023-04-03T08:12:16;3.80;;;1.58;;
75216;SDS011;63800;51.972;5.682;2023-04-03T08:14:41;3.10;;;1.30;;
75216;SDS011;63800;51.972;5.682;2023-04-03T08:17:08;3.25;;;1.75;;
75216;SDS011;63800;51.972;5.682;2023-04-03T08:19:36;4.93;;;1.50;;
75216;SDS011;63800;51.972;5.682;2023-04-03T08:22:03;4.47;;;1.85;;
75216;SDS011;63800;51.972;5.682;2023-04-03T08:24:30;2.30;;;1.45;;
75216;SDS011;63800;51.972;5.682;2023-04-03T08:26:56;4.00;;;1.20;;
75216;SDS011;63800;51.972;5.682;2023-04-03T08:29:22;1.92;;;1.30;;
75216;SDS011;63800;51.972;5.682;2023-04-03T08:31:49;2.95;;;1.55;;
75216;SDS011;63800;51.972;5.682;2023-04-03T08:34:15;1.83;;;1.35;;
75216;SDS011;63800;51.972;5.682;2023-04-03T08:36:41;2.53;;;1.40;;
75216;SDS011;63800;51.972;5.682;2023-04-03T08:39:07;1.23;;;1.00;;
75216;SDS011;63800;51.972;5.682;2023-04-03T08:46:47;3.92;;;0.90;;
75216;SDS011;63800;51.972;5.682;2023-04-03T08:49:41;1.45;;;0.98;;
75216;SDS011;63800;51.972;5.682;2023-04-03T08:52:17;1.10;;;1.00;;
75216;SDS011;63800;51.972;5.682;2023-04-03T08:54:52;1.15;;;1.02;;
75216;SDS011;63800;51.972;5.682;2023-04-03T08:57:24;1.45;;;1.00;;
75216;SDS011;63800;51.972;5.682;2023-04-03T08:59:54;1.17;;;1.00;;
75216;SDS011;63800;51.972;5.682;2023-04-03T09:02:27;3.17;;;1.33;;
75216;SDS011;63800;51.972;5.682;2023-04-03T09:04:58;1.10;;;0.80;;
75216;SDS011;63800;51.972;5.682;2023-04-03T09:07:36;1.70;;;0.98;;
75216;SDS011;63800;51.972;5.682;2023-04-03T09:10:08;1.10;;;1.00;;
75216;SDS011;63800;51.972;5.682;2023-04-03T09:12:38;2.63;;;1.00;;
75216;SDS011;63800;51.972;5.682;2023-04-03T09:15:16;1.65;;;1.08;;
75216;SDS011;63800;51.972;5.682;2023-04-03T09:21:02;1.92;;;1.00;;
75216;SDS011;63800;51.972;5.682;2023-04-03T09:26:04;0.75;;;0.75;;
75216;SDS011;63800;51.972;5.682;2023-04-03T09:28:35;1.17;;;0.70;;
75216;SDS011;63800;51.972;5.682;2023-04-03T09:31:14;1.83;;;1.17;;
75216;SDS011;63800;51.972;5.682;2023-04-03T09:33:50;0.77;;;0.70;;
75216;SDS011;63800;51.972;5.682;2023-04-03T09:39:14;1.13;;;0.82;;
75216;SDS011;63800;51.972;5.682;2023-04-03T09:41:42;1.17;;;1.08;;
75216;SDS011;63800;51.972;5.682;2023-04-03T09:47:00;1.65;;;1.00;;
75216;SDS011;63800;51.972;5.682;2023-04-03T09:49:43;2.33;;;0.80;;
75216;SDS011;63800;51.972;5.682;2023-04-03T09:52:19;2.13;;;0.80;;
75216;SDS011;63800;51.972;5.682;2023-04-03T09:54:47;0.70;;;0.70;;
75216;SDS011;63800;51.972;5.682;2023-04-03T09:57:13;0.77;;;0.75;;
75216;SDS011;63800;51.972;5.682;2023-04-03T09:59:41;1.75;;;0.75;;
75216;SDS011;63800;51.972;5.682;2023-04-03T10:04:47;0.80;;;0.70;;
75216;SDS011;63800;51.972;5.682;2023-04-03T10:07:27;1.25;;;0.77;;
75216;SDS011;63800;51.972;5.682;2023-04-03T10:12:40;1.13;;;0.98;;
75216;SDS011;63800;51.972;5.682;2023-04-03T10:15:18;1.85;;;0.90;;
75216;SDS011;63800;51.972;5.682;2023-04-03T10:17:49;0.95;;;0.70;;
75216;SDS011;63800;51.972;5.682;2023-04-03T10:20:22;1.02;;;0.80;;
75216;SDS011;63800;51.972;5.682;2023-04-03T10:26:09;1.10;;;1.00;;
75216;SDS011;63800;51.972;5.682;2023-04-03T10:32:50;1.23;;;1.13;;
75216;SDS011;63800;51.972;5.682;2023-04-03T10:49:24;3.30;;;1.20;;
75216;SDS011;63800;51.972;5.682;2023-04-03T10:54:37;2.95;;;1.20;;
75216;SDS011;63800;51.972;5.682;2023-04-03T10:57:08;1.25;;;1.02;;
75216;SDS011;63800;51.972;5.682;2023-04-03T10:59:36;1.40;;;1.10;;
75216;SDS011;63800;51.972;5.682;2023-04-03T11:02:22;1.65;;;1.20;;
75216;SDS011;63800;51.972;5.682;2023-04-03T11:04:52;1.50;;;1.25;;
75216;SDS011;63800;51.972;5.682;2023-04-03T11:07:29;1.42;;;1.10;;
75216;SDS011;63800;51.972;5.682;2023-04-03T11:10:03;2.45;;;1.10;;
75216;SDS011;63800;51.972;5.682;2023-04-03T11:15:12;1.42;;;1.08;;
75216;SDS011;63800;51.972;5.682;2023-04-03T11:17:53;1.30;;;1.10;;
75216;SDS011;63800;51.972;5.682;2023-04-03T11:20:29;2.03;;;1.30;;
75216;SDS011;63800;51.972;5.682;2023-04-03T11:23:03;1.52;;;1.40;;
75216;SDS011;63800;51.972;5.682;2023-04-03T11:25:32;1.75;;;1.48;;
75216;SDS011;63800;51.972;5.682;2023-04-03T11:28:03;3.22;;;1.10;;
75216;SDS011;63800;51.972;5.682;2023-04-03T11:30:36;1.98;;;1.33;;
75216;SDS011;63800;51.972;5.682;2023-04-03T11:35:45;2.03;;;1.25;;
75216;SDS011;63800;51.972;5.682;2023-04-03T11:41:08;1.52;;;1.00;;
75216;SDS011;63800;51.972;5.682;2023-04-03T11:43:39;1.13;;;1.00;;
75216;SDS011;63800;51.972;5.682;2023-04-03T11:46:08;2.40;;;1.47;;
75216;SDS011;63800;51.972;5.682;2023-04-03T11:53:45;1.02;;;0.90;;
75216;SDS011;63800;51.972;5.682;2023-04-03T12:04:10;2.55;;;1.30;;
75216;SDS011;63800;51.972;5.682;2023-04-03T12:09:21;1.63;;;1.30;;
75216;SDS011;63800;51.972;5.682;2023-04-03T12:11:57;1.63;;;1.15;;
75216;SDS011;63800;51.972;5.682;2023-04-03T12:14:26;1.20;;;1.08;;
75216;SDS011;63800;51.972;5.682;2023-04-03T12:16:53;2.72;;;1.10;;
75216;SDS011;63800;51.972;5.682;2023-04-03T12:19:38;1.95;;;1.33;;
75216;SDS011;63800;51.972;5.682;2023-04-03T12:22:12;2.58;;;1.20;;
75216;SDS011;63800;51.972;5.682;2023-04-03T12:24:44;1.98;;;1.27;;
75216;SDS011;63800;51.972;5.682;2023-04-03T12:35:10;1.55;;;1.40;;
75216;SDS011;63800;51.972;5.682;2023-04-03T12:48:13;2.45;;;1.60;;
75216;SDS011;63800;51.972;5.682;2023-04-03T12:50:41;4.05;;;1.55;;
75216;SDS011;63800;51.972;5.682;2023-04-03T12:53:21;2.20;;;1.15;;
75216;SDS011;63800;51.972;5.682;2023-04-03T12:55:53;2.45;;;1.30;;
75216;SDS011;63800;51.972;5.682;2023-04-03T13:03:55;2.03;;;1.35;;
75216;SDS011;63800;51.972;5.682;2023-04-03T13:06:26;5.07;;;1.40;;
75216;SDS011;63800;51.972;5.682;2023-04-03T13:08:57;3.15;;;1.58;;
75216;SDS011;63800;51.972;5.682;2023-04-03T13:11:25;1.95;;;1.25;;
75216;SDS011;63800;51.972;5.682;2023-04-03T13:16:22;1.95;;;1.30;;
75216;SDS011;63800;51.972;5.682;2023-04-03T13:18:52;2.55;;;1.42;;
75216;SDS011;63800;51.972;5.682;2023-04-03T13:21:19;2.20;;;1.45;;
75216;SDS011;63800;51.972;5.682;2023-04-03T13:23:49;1.98;;;1.13;;
75216;SDS011;63800;51.972;5.682;2023-04-03T13:26:17;1.45;;;1.35;;
75216;SDS011;63800;51.972;5.682;2023-04-03T13:28:45;2.00;;;1.30;;
75216;SDS011;63800;51.972;5.682;2023-04-03T13:36:21;3.53;;;1.65;;
75216;SDS011;63800;51.972;5.682;2023-04-03T13:38:59;2.97;;;1.27;;
75216;SDS011;63800;51.972;5.682;2023-04-03T13:41:32;2.70;;;1.20;;
75216;SDS011;63800;51.972;5.682;2023-04-03T13:44:23;3.05;;;1.50;;
75216;SDS011;63800;51.972;5.682;2023-04-03T13:46:54;1.33;;;1.23;;
75216;SDS011;63800;51.972;5.682;2023-04-03T13:51:56;2.08;;;1.30;;
75216;SDS011;63800;51.972;5.682;2023-04-03T13:54:24;2.13;;;1.50;;
75216;SDS011;63800;51.972;5.682;2023-04-03T13:56:59;2.58;;;1.52;;
75216;SDS011;63800;51.972;5.682;2023-04-03T13:59:28;4.20;;;1.30;;
75216;SDS011;63800;51.972;5.682;2023-04-03T14:04:27;2.67;;;1.30;;
75216;SDS011;63800;51.972;5.682;2023-04-03T14:06:55;3.22;;;1.25;;
75216;SDS011;63800;51.972;5.682;2023-04-03T14:09:21;1.95;;;1.40;;
75216;SDS011;63800;51.972;5.682;2023-04-03T14:11:48;1.90;;;1.60;;
75216;SDS011;63800;51.972;5.682;2023-04-03T14:14:24;2.90;;;1.58;;
75216;SDS011;63800;51.972;5.682;2023-04-03T14:16:56;3.20;;;1.60;;
75216;SDS011;63800;51.972;5.682;2023-04-03T14:19:28;3.10;;;1.83;;
75216;SDS011;63800;51.972;5.682;2023-04-03T14:21:57;3.27;;;1.40;;
75216;SDS011;63800;51.972;5.682;2023-04-03T14:24:23;2.28;;;1.55;;
75216;SDS011;63800;51.972;5.682;2023-04-03T14:26:49;2.05;;;1.30;;
75216;SDS011;63800;51.972;5.682;2023-04-03T14:29:17;2.25;;;1.40;;
75216;SDS011;63800;51.972;5.682;2023-04-03T14:31:44;2.95;;;1.38;;
75216;SDS011;63800;51.972;5.682;2023-04-03T14:34:11;3.22;;;1.40;;
75216;SDS011;63800;51.972;5.682;2023-04-03T14:36:37;2.10;;;1.48;;
75216;SDS011;63800;51.972;5.682;2023-04-03T14:39:04;2.70;;;1.50;;
75216;SDS011;63800;51.972;5.682;2023-04-03T14:41:31;2.35;;;1.50;;
75216;SDS011;63800;51.972;5.682;2023-04-03T14:43:57;3.72;;;1.40;;
75216;SDS011;63800;51.972;5.682;2023-04-03T14:46:27;2.38;;;1.70;;
75216;SDS011;63800;51.972;5.682;2023-04-03T14:48:55;4.27;;;1.40;;
75216;SDS011;63800;51.972;5.682;2023-04-03T14:51:20;2.50;;;1.70;;
75216;SDS011;63800;51.972;5.682;2023-04-03T14:53:46;2.20;;;1.65;;
75216;SDS011;63800;51.972;5.682;2023-04-03T14:58:56;2.08;;;1.40;;
75216;SDS011;63800;51.972;5.682;2023-04-03T15:01:23;2.38;;;1.23;;
75216;SDS011;63800;51.972;5.682;2023-04-03T15:03:49;4.80;;;1.45;;
75216;SDS011;63800;51.972;5.682;2023-04-03T15:06:15;3.08;;;1.60;;
75216;SDS011;63800;51.972;5.682;2023-04-03T15:08:42;4.20;;;1.95;;
75216;SDS011;63800;51.972;5.682;2023-04-03T15:11:09;2.38;;;1.30;;
75216;SDS011;63800;51.972;5.682;2023-04-03T15:13:35;2.92;;;1.67;;
75216;SDS011;63800;51.972;5.682;2023-04-03T15:16:01;1.85;;;1.60;;
75216;SDS011;63800;51.972;5.682;2023-04-03T15:18:29;5.28;;;2.00;;
75216;SDS011;63800;51.972;5.682;2023-04-03T15:21:00;3.42;;;1.70;;
75216;SDS011;63800;51.972;5.682;2023-04-03T15:23:25;3.42;;;1.92;;
75216;SDS011;63800;51.972;5.682;2023-04-03T15:25:51;4.93;;;2.03;;
75216;SDS011;63800;51.972;5.682;2023-04-03T15:28:19;2.08;;;1.50;;
75216;SDS011;63800;51.972;5.682;2023-04-03T15:30:51;4.28;;;1.42;;
75216;SDS011;63800;51.972;5.682;2023-04-03T15:33:17;3.28;;;1.67;;
75216;SDS011;63800;51.972;5.682;2023-04-03T15:35:42;3.00;;;1.65;;
75216;SDS011;63800;51.972;5.682;2023-04-03T15:38:08;2.38;;;1.70;;
75216;SDS011;63800;51.972;5.682;2023-04-03T15:40:34;3.42;;;1.90;;
75216;SDS011;63800;51.972;5.682;2023-04-03T15:43:00;2.33;;;1.90;;
75216;SDS011;63800;51.972;5.682;2023-04-03T15:45:26;2.80;;;1.42;;
75216;SDS011;63800;51.972;5.682;2023-04-03T15:47:54;4.05;;;1.60;;
75216;SDS011;63800;51.972;5.682;2023-04-03T15:50:20;2.28;;;1.45;;
75216;SDS011;63800;51.972;5.682;2023-04-03T15:52:47;4.47;;;1.80;;
75216;SDS011;63800;51.972;5.682;2023-04-03T15:55:16;2.35;;;1.58;;
75216;SDS011;63800;51.972;5.682;2023-04-03T15:57:41;3.92;;;2.00;;
75216;SDS011;63800;51.972;5.682;2023-04-03T16:00:07;3.88;;;1.90;;
75216;SDS011;63800;51.972;5.682;2023-04-03T16:02:33;3.75;;;1.70;;
75216;SDS011;63800;51.972;5.682;2023-04-03T16:04:59;3.47;;;1.52;;
75216;SDS011;63800;51.972;5.682;2023-04-03T16:07:25;2.90;;;1.58;;
75216;SDS011;63800;51.972;5.682;2023-04-03T16:09:51;3.00;;;1.70;;
75216;SDS011;63800;51.972;5.682;2023-04-03T16:12:16;4.28;;;1.73;;
75216;SDS011;63800;51.972;5.682;2023-04-03T16:14:42;3.00;;;1.77;;
75216;SDS011;63800;51.972;5.682;2023-04-03T16:17:07;2.15;;;1.52;;
75216;SDS011;63800;51.972;5.682;2023-04-03T16:19:33;3.50;;;2.05;;
75216;SDS011;63800;51.972;5.682;2023-04-03T16:21:58;3.00;;;1.65;;
75216;SDS011;63800;51.972;5.682;2023-04-03T16:24:24;4.15;;;1.50;;
75216;SDS011;63800;51.972;5.682;2023-04-03T16:26:49;4.20;;;1.40;;
75216;SDS011;63800;51.972;5.682;2023-04-03T16:29:15;3.42;;;1.60;;
75216;SDS011;63800;51.972;5.682;2023-04-03T16:31:40;2.30;;;1.50;;
75216;SDS011;63800;51.972;5.682;2023-04-03T16:34:06;1.98;;;1.33;;
75216;SDS011;63800;51.972;5.682;2023-04-03T16:36:31;2.17;;;1.75;;
75216;SDS011;63800;51.972;5.682;2023-04-03T16:38:57;4.03;;;1.60;;
75216;SDS011;63800;51.972;5.682;2023-04-03T16:41:22;2.40;;;1.42;;
75216;SDS011;63800;51.972;5.682;2023-04-03T16:43:48;3.05;;;1.50;;
75216;SDS011;63800;51.972;5.682;2023-04-03T16:46:14;2.17;;;1.60;;